sensor_id;sensor_type;location;lat;lon;timestamp;pressure;altitude;pressure_sealevel;temperature;humidity
70968;BME280;58629;48.808;8.820;2022-11-20T00:01:32;96616.53;;;5.19;94.89
70968;BME280;58629;48.808;8.820;2022-11-20T00:03:58;96614.69;;;5.16;94.24
70968;BME280;58629;48.808;8.820;2022-11-20T00:06:24;96615.44;;;5.13;93.32
70968;BME280;58629;48.808;8.820;2022-11-20T00:08:50;96606.47;;;5.07;93.69
70968;BME280;58629;48.808;8.820;2022-11-20T00:11:20;96615.09;;;5.04;93.74
70968;BME280;58629;48.808;8.820;2022-11-20T00:13:48;96611.00;;;4.99;93.49
70968;BME280;58629;48.808;8.820;2022-11-20T00:16:16;96612.88;;;4.99;94.64
70968;BME280;58629;48.808;8.820;2022-11-20T00:18:41;96615.16;;;4.97;94.15
70968;BME280;58629;48.808;8.820;2022-11-20T00:21:12;96604.28;;;4.91;93.74
70968;BME280;58629;48.808;8.820;2022-11-20T00:23:38;96616.25;;;4.96;94.30
70968;BME280;58629;48.808;8.820;2022-11-20T00:26:05;96614.00;;;4.98;94.43
70968;BME280;58629;48.808;8.820;2022-11-20T00:28:30;96609.13;;;5.00;95.00
70968;BME280;58629;48.808;8.820;2022-11-20T00:31:08;96622.59;;;5.02;95.38
70968;BME280;58629;48.808;8.820;2022-11-20T00:33:33;96611.75;;;5.00;94.37
70968;BME280;58629;48.808;8.820;2022-11-20T00:36:10;96619.63;;;5.00;92.92
70968;BME280;58629;48.808;8.820;2022-11-20T00:38:36;96615.88;;;5.01;93.95
70968;BME280;58629;48.808;8.820;2022-11-20T00:41:04;96613.63;;;4.96;94.71
70968;BME280;58629;48.808;8.820;2022-11-20T00:43:30;96612.53;;;4.97;93.30
70968;BME280;58629;48.808;8.820;2022-11-20T00:46:00;96617.41;;;4.95;91.58
70968;BME280;58629;48.808;8.820;2022-11-20T00:48:26;96614.75;;;4.98;93.00
70968;BME280;58629;48.808;8.820;2022-11-20T00:50:52;96612.53;;;4.97;91.08
70968;BME280;58629;48.808;8.820;2022-11-20T00:53:17;96611.78;;;4.93;92.54
70968;BME280;58629;48.808;8.820;2022-11-20T00:55:42;96614.03;;;4.91;91.73
70968;BME280;58629;48.808;8.820;2022-11-20T00:58:08;96623.00;;;4.93;92.83
70968;BME280;58629;48.808;8.820;2022-11-20T01:00:34;96623.03;;;4.90;91.80
70968;BME280;58629;48.808;8.820;2022-11-20T01:02:59;96623.03;;;4.90;92.66
70968;BME280;58629;48.808;8.820;2022-11-20T01:05:24;96623.44;;;4.85;91.00
70968;BME280;58629;48.808;8.820;2022-11-20T01:07:49;96621.94;;;4.84;92.05
70968;BME280;58629;48.808;8.820;2022-11-20T01:10:15;96620.47;;;4.79;91.40
70968;BME280;58629;48.808;8.820;2022-11-20T01:12:40;96627.22;;;4.77;91.45
70968;BME280;58629;48.808;8.820;2022-11-20T01:15:05;96627.97;;;4.77;91.77
70968;BME280;58629;48.808;8.820;2022-11-20T01:17:31;96626.09;;;4.74;92.37
70968;BME280;58629;48.808;8.820;2022-11-20T01:19:57;96621.22;;;4.73;92.69
70968;BME280;58629;48.808;8.820;2022-11-20T01:22:22;96623.88;;;4.62;92.11
70968;BME280;58629;48.808;8.820;2022-11-20T01:24:47;96622.75;;;4.60;93.08
70968;BME280;58629;48.808;8.820;2022-11-20T01:27:13;96625.41;;;4.53;93.89
70968;BME280;58629;48.808;8.820;2022-11-20T01:29:38;96622.03;;;4.49;93.59
70968;BME280;58629;48.808;8.820;2022-11-20T01:32:03;96623.53;;;4.46;93.58
70968;BME280;58629;48.808;8.820;2022-11-20T01:34:29;96622.06;;;4.45;93.29
70968;BME280;58629;48.808;8.820;2022-11-20T01:36:54;96620.53;;;4.44;92.95
70968;BME280;58629;48.808;8.820;2022-11-20T01:39:22;96622.41;;;4.40;93.99
70968;BME280;58629;48.808;8.820;2022-11-20T01:41:50;96620.19;;;4.38;94.77
70968;BME280;58629;48.808;8.820;2022-11-20T01:44:55;96613.81;;;4.36;94.30
70968;BME280;58629;48.808;8.820;2022-11-20T01:47:37;96619.81;;;4.36;95.35
70968;BME280;58629;48.808;8.820;2022-11-20T01:50:17;96616.06;;;4.37;94.95
70968;BME280;58629;48.808;8.820;2022-11-20T01:52:51;96616.06;;;4.37;95.83
70968;BME280;58629;48.808;8.820;2022-11-20T01:55:23;96611.19;;;4.32;96.38
70968;BME280;58629;48.808;8.820;2022-11-20T01:57:50;96612.69;;;4.30;96.34
70968;BME280;58629;48.808;8.820;2022-11-20T02:00:18;96617.19;;;4.26;96.74
70968;BME280;58629;48.808;8.820;2022-11-20T02:02:49;96605.97;;;4.18;96.71
70968;BME280;58629;48.808;8.820;2022-11-20T02:05:20;96615.34;;;4.19;96.72
70968;BME280;58629;48.808;8.820;2022-11-20T02:07:48;96615.34;;;4.12;96.46
70968;BME280;58629;48.808;8.820;2022-11-20T02:10:14;96616.09;;;4.13;97.69
70968;BME280;58629;48.808;8.820;2022-11-20T02:12:39;96618.72;;;4.13;97.13
70968;BME280;58629;48.808;8.820;2022-11-20T02:15:23;96613.47;;;4.13;97.12
70968;BME280;58629;48.808;8.820;2022-11-20T02:17:48;96617.97;;;4.12;97.12
70968;BME280;58629;48.808;8.820;2022-11-20T02:20:14;96624.34;;;4.15;97.71
70968;BME280;58629;48.808;8.820;2022-11-20T02:22:48;96627.72;;;4.15;97.53
70968;BME280;58629;48.808;8.820;2022-11-20T02:25:16;96619.47;;;4.20;97.31
70968;BME280;58629;48.808;8.820;2022-11-20T02:27:42;96622.84;;;4.21;98.01
70968;BME280;58629;48.808;8.820;2022-11-20T02:30:08;96619.47;;;4.20;97.90
70968;BME280;58629;48.808;8.820;2022-11-20T02:32:36;96618.72;;;4.16;98.83
70968;BME280;58629;48.808;8.820;2022-11-20T02:35:54;96618.69;;;4.20;99.34
70968;BME280;58629;48.808;8.820;2022-11-20T02:37:58;96631.81;;;4.20;98.86
70968;BME280;58629;48.808;8.820;2022-11-20T02:40:24;96623.59;;;4.21;98.14
70968;BME280;58629;48.808;8.820;2022-11-20T02:42:55;96624.69;;;4.24;98.15
70968;BME280;58629;48.808;8.820;2022-11-20T02:45:22;96631.81;;;4.27;97.91
70968;BME280;58629;48.808;8.820;2022-11-20T02:47:48;96628.81;;;4.28;97.47
70968;BME280;58629;48.808;8.820;2022-11-20T02:50:13;96626.56;;;4.30;97.33
70968;BME280;58629;48.808;8.820;2022-11-20T02:52:38;96628.44;;;4.33;97.16
70968;BME280;58629;48.808;8.820;2022-11-20T02:55:04;96623.94;;;4.34;96.88
70968;BME280;58629;48.808;8.820;2022-11-20T02:57:30;96638.19;;;4.29;96.59
70968;BME280;58629;48.808;8.820;2022-11-20T02:59:55;96632.53;;;4.24;98.16
70968;BME280;58629;48.808;8.820;2022-11-20T03:02:20;96624.69;;;4.24;98.33
70968;BME280;58629;48.808;8.820;2022-11-20T03:04:46;96623.94;;;4.20;98.60
70968;BME280;58629;48.808;8.820;2022-11-20T03:07:11;96620.59;;;4.16;98.80
70968;BME280;58629;48.808;8.820;2022-11-20T03:09:36;96616.88;;;4.10;98.87
70968;BME280;58629;48.808;8.820;2022-11-20T03:12:02;96620.22;;;4.07;98.33
70968;BME280;58629;48.808;8.820;2022-11-20T03:14:27;96625.47;;;4.03;98.67
70968;BME280;58629;48.808;8.820;2022-11-20T03:16:52;96615.34;;;3.98;98.91
70968;BME280;58629;48.808;8.820;2022-11-20T03:19:18;96615.72;;;3.97;98.76
70968;BME280;58629;48.808;8.820;2022-11-20T03:21:43;96611.59;;;3.92;97.46
70968;BME280;58629;48.808;8.820;2022-11-20T03:24:08;96610.88;;;3.95;98.02
70968;BME280;58629;48.808;8.820;2022-11-20T03:26:33;96614.59;;;3.94;98.68
70968;BME280;58629;48.808;8.820;2022-11-20T03:29:01;96619.47;;;3.89;97.96
70968;BME280;58629;48.808;8.820;2022-11-20T03:31:28;96611.63;;;3.85;97.69
70968;BME280;58629;48.808;8.820;2022-11-20T03:33:56;96616.09;;;3.88;98.15
70968;BME280;58629;48.808;8.820;2022-11-20T03:36:22;96613.84;;;3.87;97.87
70968;BME280;58629;48.808;8.820;2022-11-20T03:38:48;96613.13;;;3.79;97.57
70968;BME280;58629;48.808;8.820;2022-11-20T03:41:17;96615.00;;;3.82;98.73
70968;BME280;58629;48.808;8.820;2022-11-20T03:43:50;96615.75;;;3.86;99.11
70968;BME280;58629;48.808;8.820;2022-11-20T03:46:15;96612.38;;;3.89;98.17
70968;BME280;58629;48.808;8.820;2022-11-20T03:48:41;96608.25;;;3.88;98.65
70968;BME280;58629;48.808;8.820;2022-11-20T03:51:14;96604.13;;;3.91;99.05
70968;BME280;58629;48.808;8.820;2022-11-20T03:53:41;96598.50;;;3.92;98.91
70968;BME280;58629;48.808;8.820;2022-11-20T03:56:08;96613.84;;;3.87;98.72
70968;BME280;58629;48.808;8.820;2022-11-20T03:58:35;96605.28;;;3.90;98.90
70968;BME280;58629;48.808;8.820;2022-11-20T04:03:35;96607.88;;;3.90;99.39
70968;BME280;58629;48.808;8.820;2022-11-20T04:06:09;96611.25;;;3.94;99.38
70968;BME280;58629;48.808;8.820;2022-11-20T04:08:35;96607.13;;;3.93;99.58
70968;BME280;58629;48.808;8.820;2022-11-20T04:11:11;96605.25;;;3.93;99.18
70968;BME280;58629;48.808;8.820;2022-11-20T04:13:37;96610.09;;;3.98;99.86
70968;BME280;58629;48.808;8.820;2022-11-20T04:16:04;96604.13;;;4.01;99.82
70968;BME280;58629;48.808;8.820;2022-11-20T04:18:29;96605.63;;;4.02;99.52
70968;BME280;58629;48.808;8.820;2022-11-20T04:20:56;96597.78;;;4.06;99.94
70968;BME280;58629;48.808;8.820;2022-11-20T04:23:22;96595.13;;;4.02;99.68
70968;BME280;58629;48.808;8.820;2022-11-20T04:25:47;96601.13;;;4.13;99.73
70968;BME280;58629;48.808;8.820;2022-11-20T04:28:12;96600.00;;;4.21;98.94
70968;BME280;58629;48.808;8.820;2022-11-20T04:30:37;96593.63;;;4.29;99.05
70968;BME280;58629;48.808;8.820;2022-11-20T04:33:03;96594.75;;;4.35;99.45
70968;BME280;58629;48.808;8.820;2022-11-20T04:35:28;96591.72;;;4.40;98.83
70968;BME280;58629;48.808;8.820;2022-11-20T04:37:53;96592.81;;;4.47;99.42
70968;BME280;58629;48.808;8.820;2022-11-20T04:40:18;96591.69;;;4.51;99.41
70968;BME280;58629;48.808;8.820;2022-11-20T04:42:44;96594.69;;;4.57;98.11
70968;BME280;58629;48.808;8.820;2022-11-20T04:45:09;96585.69;;;4.61;98.36
70968;BME280;58629;48.808;8.820;2022-11-20T04:47:34;96589.03;;;4.65;97.67
70968;BME280;58629;48.808;8.820;2022-11-20T04:50:00;96590.88;;;4.72;97.52
70968;BME280;58629;48.808;8.820;2022-11-20T04:52:25;96585.59;;;4.79;96.88
70968;BME280;58629;48.808;8.820;2022-11-20T04:54:51;96592.72;;;4.82;95.08
70968;BME280;58629;48.808;8.820;2022-11-20T04:57:18;96586.66;;;4.95;95.50
70968;BME280;58629;48.808;8.820;2022-11-20T04:59:43;96588.53;;;4.95;94.60
70968;BME280;58629;48.808;8.820;2022-11-20T05:02:09;96589.63;;;5.01;94.46
70968;BME280;58629;48.808;8.820;2022-11-20T05:04:34;96593.72;;;5.05;93.95
70968;BME280;58629;48.808;8.820;2022-11-20T05:07:00;96585.84;;;5.05;94.02
70968;BME280;58629;48.808;8.820;2022-11-20T05:09:25;96584.34;;;5.08;94.12
70968;BME280;58629;48.808;8.820;2022-11-20T05:11:50;96583.97;;;5.06;93.58
70968;BME280;58629;48.808;8.820;2022-11-20T05:14:15;96583.59;;;5.07;94.17
70968;BME280;58629;48.808;8.820;2022-11-20T05:16:41;96581.34;;;5.09;94.19
70968;BME280;58629;48.808;8.820;2022-11-20T05:19:06;96588.09;;;5.10;93.80
70968;BME280;58629;48.808;8.820;2022-11-20T05:21:32;96588.03;;;5.17;94.28
70968;BME280;58629;48.808;8.820;2022-11-20T05:23:57;96589.56;;;5.15;94.21
70968;BME280;58629;48.808;8.820;2022-11-20T05:26:23;96585.06;;;5.15;93.85
70968;BME280;58629;48.808;8.820;2022-11-20T05:28:49;96580.91;;;5.18;93.77
70968;BME280;58629;48.808;8.820;2022-11-20T05:31:17;96583.91;;;5.20;93.65
70968;BME280;58629;48.808;8.820;2022-11-20T05:33:44;96591.78;;;5.20;93.22
70968;BME280;58629;48.808;8.820;2022-11-20T05:36:11;96589.16;;;5.20;94.62
70968;BME280;58629;48.808;8.820;2022-11-20T05:38:37;96590.28;;;5.19;94.65
70968;BME280;58629;48.808;8.820;2022-11-20T05:41:06;96588.78;;;5.21;94.26
70968;BME280;58629;48.808;8.820;2022-11-20T05:43:33;96579.03;;;5.22;93.93
70968;BME280;58629;48.808;8.820;2022-11-20T05:45:59;96583.13;;;5.23;92.97
70968;BME280;58629;48.808;8.820;2022-11-20T05:48:25;96592.88;;;5.26;94.13
70968;BME280;58629;48.808;8.820;2022-11-20T05:50:50;96588.03;;;5.24;92.96
70968;BME280;58629;48.808;8.820;2022-11-20T05:53:15;96585.00;;;5.26;92.89
70968;BME280;58629;48.808;8.820;2022-11-20T05:55:41;96581.59;;;5.29;93.41
70968;BME280;58629;48.808;8.820;2022-11-20T05:58:06;96589.09;;;5.31;94.03
70968;BME280;58629;48.808;8.820;2022-11-20T06:00:31;96581.97;;;5.31;93.33
70968;BME280;58629;48.808;8.820;2022-11-20T06:02:57;96579.69;;;5.33;93.67
70968;BME280;58629;48.808;8.820;2022-11-20T06:05:22;96581.97;;;5.31;93.11
70968;BME280;58629;48.808;8.820;2022-11-20T06:07:47;96583.06;;;5.34;93.45
70968;BME280;58629;48.808;8.820;2022-11-20T06:10:12;96587.22;;;5.35;93.70
70968;BME280;58629;48.808;8.820;2022-11-20T06:12:38;96587.22;;;5.35;93.38
70968;BME280;58629;48.808;8.820;2022-11-20T06:15:04;96578.22;;;5.32;92.75
70968;BME280;58629;48.808;8.820;2022-11-20T06:17:30;96575.94;;;5.34;93.00
70968;BME280;58629;48.808;8.820;2022-11-20T06:19:55;96569.94;;;5.34;93.98
70968;BME280;58629;48.808;8.820;2022-11-20T06:22:20;96578.94;;;5.36;94.46
70968;BME280;58629;48.808;8.820;2022-11-20T06:24:45;96578.97;;;5.29;94.20
70968;BME280;58629;48.808;8.820;2022-11-20T06:27:11;96580.84;;;5.32;95.37
70968;BME280;58629;48.808;8.820;2022-11-20T06:29:36;96578.97;;;5.29;96.17
70968;BME280;58629;48.808;8.820;2022-11-20T06:32:01;96573.75;;;5.25;95.53
70968;BME280;58629;48.808;8.820;2022-11-20T06:34:27;96577.13;;;5.26;95.43
70968;BME280;58629;48.808;8.820;2022-11-20T06:36:52;96579.75;;;5.26;95.32
70968;BME280;58629;48.808;8.820;2022-11-20T06:39:17;96580.16;;;5.24;94.72
70968;BME280;58629;48.808;8.820;2022-11-20T06:41:42;96588.00;;;5.28;95.14
70968;BME280;58629;48.808;8.820;2022-11-20T06:44:07;96584.22;;;5.29;95.38
70968;BME280;58629;48.808;8.820;2022-11-20T06:46:33;96590.59;;;5.32;95.37
70968;BME280;58629;48.808;8.820;2022-11-20T06:48:58;96596.19;;;5.34;95.60
70968;BME280;58629;48.808;8.820;2022-11-20T06:51:23;96591.72;;;5.34;95.79
70968;BME280;58629;48.808;8.820;2022-11-20T06:53:49;96592.06;;;5.36;95.85
70968;BME280;58629;48.808;8.820;2022-11-20T06:56:14;96589.84;;;5.35;96.53
70968;BME280;58629;48.808;8.820;2022-11-20T06:58:43;96582.31;;;5.37;96.48
70968;BME280;58629;48.808;8.820;2022-11-20T07:01:12;96587.22;;;5.35;96.47
70968;BME280;58629;48.808;8.820;2022-11-20T07:03:38;96586.84;;;5.33;96.44
70968;BME280;58629;48.808;8.820;2022-11-20T07:06:05;96596.19;;;5.34;96.97
70968;BME280;58629;48.808;8.820;2022-11-20T07:08:30;96606.34;;;5.32;96.77
70968;BME280;58629;48.808;8.820;2022-11-20T07:11:00;96595.84;;;5.32;96.92
70968;BME280;58629;48.808;8.820;2022-11-20T07:13:27;96599.63;;;5.23;95.43
70968;BME280;58629;48.808;8.820;2022-11-20T07:15:52;96605.22;;;5.29;96.31
70968;BME280;58629;48.808;8.820;2022-11-20T07:18:18;96601.84;;;5.32;95.74
70968;BME280;58629;48.808;8.820;2022-11-20T07:20:43;96603.31;;;5.37;95.40
70968;BME280;58629;48.808;8.820;2022-11-20T07:23:08;96608.56;;;5.40;95.82
70968;BME280;58629;48.808;8.820;2022-11-20T07:25:33;96608.94;;;5.39;95.45
70968;BME280;58629;48.808;8.820;2022-11-20T07:27:59;96605.56;;;5.38;95.04
70968;BME280;58629;48.808;8.820;2022-11-20T07:30:27;96614.91;;;5.39;95.46
70968;BME280;58629;48.808;8.820;2022-11-20T07:32:54;96617.88;;;5.48;93.49
70968;BME280;58629;48.808;8.820;2022-11-20T07:35:20;96618.59;;;5.49;92.05
70968;BME280;58629;48.808;8.820;2022-11-20T07:37:46;96620.88;;;5.50;93.24
70968;BME280;58629;48.808;8.820;2022-11-20T07:40:12;96622.75;;;5.50;92.68
70968;BME280;58629;48.808;8.820;2022-11-20T07:42:38;96618.63;;;5.45;92.05
70968;BME280;58629;48.808;8.820;2022-11-20T07:45:04;96622.78;;;5.46;92.82
70968;BME280;58629;48.808;8.820;2022-11-20T07:47:34;96631.41;;;5.43;91.86
70968;BME280;58629;48.808;8.820;2022-11-20T07:50:00;96624.63;;;5.49;91.39
70968;BME280;58629;48.808;8.820;2022-11-20T07:52:25;96631.00;;;5.48;92.33
70968;BME280;58629;48.808;8.820;2022-11-20T07:54:50;96627.59;;;5.51;91.60
70968;BME280;58629;48.808;8.820;2022-11-20T07:57:15;96629.84;;;5.53;90.36
70968;BME280;58629;48.808;8.820;2022-11-20T07:59:41;96626.84;;;5.54;91.04
70968;BME280;58629;48.808;8.820;2022-11-20T08:02:10;96628.72;;;5.54;92.15
70968;BME280;58629;48.808;8.820;2022-11-20T08:04:35;96636.91;;;5.66;90.30
70968;BME280;58629;48.808;8.820;2022-11-20T08:07:00;96632.00;;;5.65;90.39
70968;BME280;58629;48.808;8.820;2022-11-20T08:09:25;96630.53;;;5.64;90.09
70968;BME280;58629;48.808;8.820;2022-11-20T08:11:51;96641.06;;;5.60;89.84
70968;BME280;58629;48.808;8.820;2022-11-20T08:14:34;96633.09;;;5.71;91.06
70968;BME280;58629;48.808;8.820;2022-11-20T08:17:00;96636.91;;;5.66;91.50
70968;BME280;58629;48.808;8.820;2022-11-20T08:19:25;96640.94;;;5.78;90.52
70968;BME280;58629;48.808;8.820;2022-11-20T08:21:50;96647.31;;;5.84;90.78
70968;BME280;58629;48.808;8.820;2022-11-20T08:24:15;96644.66;;;5.87;92.04
70968;BME280;58629;48.808;8.820;2022-11-20T08:26:41;96647.69;;;5.86;91.66
70968;BME280;58629;48.808;8.820;2022-11-20T08:29:06;96640.19;;;5.77;91.72
70968;BME280;58629;48.808;8.820;2022-11-20T08:31:32;96647.72;;;5.75;93.76
70968;BME280;58629;48.808;8.820;2022-11-20T08:33:58;96651.13;;;5.72;93.65
70968;BME280;58629;48.808;8.820;2022-11-20T08:36:23;96646.59;;;5.73;94.67
70968;BME280;58629;48.808;8.820;2022-11-20T08:38:53;96655.66;;;5.68;94.84
70968;BME280;58629;48.808;8.820;2022-11-20T08:41:18;96654.53;;;5.66;95.21
70968;BME280;58629;48.808;8.820;2022-11-20T08:44:00;96666.88;;;5.69;95.80
70968;BME280;58629;48.808;8.820;2022-11-20T08:46:31;96659.75;;;5.69;96.06
70968;BME280;58629;48.808;8.820;2022-11-20T08:48:58;96671.75;;;5.74;96.14
70968;BME280;58629;48.808;8.820;2022-11-20T08:51:23;96673.19;;;5.82;97.26
70968;BME280;58629;48.808;8.820;2022-11-20T08:53:48;96668.69;;;5.82;97.09
70968;BME280;58629;48.808;8.820;2022-11-20T08:56:14;96672.50;;;5.74;96.38
70968;BME280;58629;48.808;8.820;2022-11-20T08:58:40;96669.88;;;5.71;97.98
70968;BME280;58629;48.808;8.820;2022-11-20T09:01:06;96665.69;;;5.87;99.61
70968;BME280;58629;48.808;8.820;2022-11-20T09:03:31;96667.16;;;5.88;98.47
70968;BME280;58629;48.808;8.820;2022-11-20T09:06:00;96670.91;;;5.91;99.02
70968;BME280;58629;48.808;8.820;2022-11-20T09:08:27;96667.16;;;5.88;98.82
70968;BME280;58629;48.808;8.820;2022-11-20T09:10:54;96665.53;;;6.08;99.16
70968;BME280;58629;48.808;8.820;2022-11-20T09:13:20;96675.53;;;6.24;100.00
70968;BME280;58629;48.808;8.820;2022-11-20T09:15:46;96674.44;;;6.18;98.25
70968;BME280;58629;48.808;8.820;2022-11-20T09:18:13;96674.25;;;6.43;96.05
70968;BME280;58629;48.808;8.820;2022-11-20T09:20:38;96682.03;;;6.57;97.30
70968;BME280;58629;48.808;8.820;2022-11-20T09:23:04;96682.25;;;6.73;98.35
70968;BME280;58629;48.808;8.820;2022-11-20T09:25:29;96679.50;;;6.83;94.97
70968;BME280;58629;48.808;8.820;2022-11-20T09:27:58;96679.06;;;6.88;95.47
70968;BME280;58629;48.808;8.820;2022-11-20T09:30:24;96685.47;;;6.87;91.08
70968;BME280;58629;48.808;8.820;2022-11-20T09:32:50;96690.38;;;6.85;92.89
70968;BME280;58629;48.808;8.820;2022-11-20T09:35:15;96680.13;;;6.94;92.21
70968;BME280;58629;48.808;8.820;2022-11-20T09:37:41;96687.13;;;6.74;91.33
70968;BME280;58629;48.808;8.820;2022-11-20T09:40:09;96691.88;;;6.49;91.98
70968;BME280;58629;48.808;8.820;2022-11-20T09:42:48;96693.28;;;6.13;94.36
70968;BME280;58629;48.808;8.820;2022-11-20T09:45:35;96692.63;;;5.98;95.23
70968;BME280;58629;48.808;8.820;2022-11-20T09:48:15;96695.94;;;6.09;98.46
70968;BME280;58629;48.808;8.820;2022-11-20T09:56:23;96709.84;;;6.06;98.65
70968;BME280;58629;48.808;8.820;2022-11-20T09:58:52;96698.34;;;5.83;96.42
70968;BME280;58629;48.808;8.820;2022-11-20T10:01:22;96705.13;;;5.84;96.60
70968;BME280;58629;48.808;8.820;2022-11-20T10:06:17;96703.22;;;5.88;97.04
70968;BME280;58629;48.808;8.820;2022-11-20T10:08:48;96713.03;;;5.73;97.91
70968;BME280;58629;48.808;8.820;2022-11-20T10:11:26;96709.25;;;5.78;100.00
70968;BME280;58629;48.808;8.820;2022-11-20T10:19:30;96690.22;;;5.60;98.73
70968;BME280;58629;48.808;8.820;2022-11-20T10:30:21;96696.16;;;5.74;98.85
70968;BME280;58629;48.808;8.820;2022-11-20T10:33:03;96695.69;;;5.90;99.31
70968;BME280;58629;48.808;8.820;2022-11-20T10:35:44;96695.25;;;5.98;98.90
70968;BME280;58629;48.808;8.820;2022-11-20T10:38:41;96696.06;;;5.88;97.54
70968;BME280;58629;48.808;8.820;2022-11-20T10:41:06;96705.50;;;5.86;98.53
70968;BME280;58629;48.808;8.820;2022-11-20T10:44:03;96696.88;;;5.78;99.00
70968;BME280;58629;48.808;8.820;2022-11-20T10:46:43;96696.13;;;5.78;99.93
70968;BME280;58629;48.808;8.820;2022-11-20T10:49:18;96690.09;;;5.84;99.37
70968;BME280;58629;48.808;8.820;2022-11-20T10:52:04;96687.06;;;5.89;97.67
70968;BME280;58629;48.808;8.820;2022-11-20T11:00:07;96692.78;;;6.29;97.70
70968;BME280;58629;48.808;8.820;2022-11-20T11:07:57;96680.19;;;6.50;94.15
70968;BME280;58629;48.808;8.820;2022-11-20T11:15:45;96670.63;;;6.26;91.71
70968;BME280;58629;48.808;8.820;2022-11-20T11:18:11;96664.72;;;6.15;92.44
70968;BME280;58629;48.808;8.820;2022-11-20T11:20:37;96656.81;;;6.19;92.77
70968;BME280;58629;48.808;8.820;2022-11-20T11:23:02;96655.75;;;6.09;91.88
70968;BME280;58629;48.808;8.820;2022-11-20T11:25:35;96656.47;;;6.13;91.76
70968;BME280;58629;48.808;8.820;2022-11-20T11:28:21;96642.25;;;6.07;92.47
70968;BME280;58629;48.808;8.820;2022-11-20T11:30:47;96647.13;;;6.08;92.32
70968;BME280;58629;48.808;8.820;2022-11-20T11:33:22;96642.84;;;6.25;93.28
70968;BME280;58629;48.808;8.820;2022-11-20T11:36:03;96639.66;;;6.44;90.94
70968;BME280;58629;48.808;8.820;2022-11-20T11:38:30;96635.84;;;6.52;89.65
70968;BME280;58629;48.808;8.820;2022-11-20T11:40:57;96626.38;;;6.58;89.64
70968;BME280;58629;48.808;8.820;2022-11-20T11:43:25;96629.81;;;6.55;89.07
70968;BME280;58629;48.808;8.820;2022-11-20T11:46:32;96618.75;;;6.71;84.08
70968;BME280;58629;48.808;8.820;2022-11-20T11:54:23;96607.75;;;7.10;82.45
70968;BME280;58629;48.808;8.820;2022-11-20T11:56:50;96612.94;;;7.17;83.92
70968;BME280;58629;48.808;8.820;2022-11-20T11:59:39;96609.44;;;7.23;82.45
70968;BME280;58629;48.808;8.820;2022-11-20T12:02:22;96607.38;;;7.38;83.16
70968;BME280;58629;48.808;8.820;2022-11-20T12:04:54;96603.22;;;7.40;82.78
70968;BME280;58629;48.808;8.820;2022-11-20T12:07:36;96600.19;;;7.42;80.01
70968;BME280;58629;48.808;8.820;2022-11-20T12:10:04;96604.06;;;7.34;78.39
70968;BME280;58629;48.808;8.820;2022-11-20T12:12:44;96590.75;;;7.44;80.95
70968;BME280;58629;48.808;8.820;2022-11-20T12:15:13;96598.78;;;7.60;78.97
70968;BME280;58629;48.808;8.820;2022-11-20T12:17:41;96598.78;;;7.60;79.68
70968;BME280;58629;48.808;8.820;2022-11-20T12:20:13;96593.63;;;7.53;78.18
70968;BME280;58629;48.808;8.820;2022-11-20T12:25:35;96590.97;;;7.53;78.63
70968;BME280;58629;48.808;8.820;2022-11-20T12:31:13;96585.66;;;7.57;77.22
70968;BME280;58629;48.808;8.820;2022-11-20T12:41:54;96595.06;;;7.31;77.11
70968;BME280;58629;48.808;8.820;2022-11-20T12:45:02;96599.25;;;7.29;76.42
70968;BME280;58629;48.808;8.820;2022-11-20T12:53:39;96600.03;;;7.26;76.10
70968;BME280;58629;48.808;8.820;2022-11-20T12:56:37;96595.78;;;7.05;74.74
70968;BME280;58629;48.808;8.820;2022-11-20T13:02:01;96584.72;;;6.87;76.72
70968;BME280;58629;48.808;8.820;2022-11-20T13:07:04;96598.72;;;6.80;76.25
70968;BME280;58629;48.808;8.820;2022-11-20T13:09:32;96590.00;;;6.87;77.04
70968;BME280;58629;48.808;8.820;2022-11-20T13:12:26;96592.13;;;6.95;75.83
70968;BME280;58629;48.808;8.820;2022-11-20T13:15:17;96586.22;;;6.88;77.60
70968;BME280;58629;48.808;8.820;2022-11-20T13:17:51;96579.84;;;6.85;76.25
70968;BME280;58629;48.808;8.820;2022-11-20T13:20:19;96574.97;;;6.84;78.29
70968;BME280;58629;48.808;8.820;2022-11-20T13:22:50;96579.13;;;6.81;76.82
70968;BME280;58629;48.808;8.820;2022-11-20T13:25:36;96585.78;;;6.93;76.83
70968;BME280;58629;48.808;8.820;2022-11-20T13:30:52;96589.81;;;6.71;78.51
70968;BME280;58629;48.808;8.820;2022-11-20T13:33:32;96587.63;;;6.62;78.34
70968;BME280;58629;48.808;8.820;2022-11-20T13:36:22;96582.53;;;6.48;80.07
70968;BME280;58629;48.808;8.820;2022-11-20T13:38:52;96577.00;;;6.39;80.44
70968;BME280;58629;48.808;8.820;2022-11-20T13:41:28;96572.19;;;6.31;80.61
70968;BME280;58629;48.808;8.820;2022-11-20T13:44:24;96575.53;;;6.35;81.93
70968;BME280;58629;48.808;8.820;2022-11-20T13:46:50;96569.16;;;6.32;82.06
70968;BME280;58629;48.808;8.820;2022-11-20T13:49:18;96577.41;;;6.34;82.25
70968;BME280;58629;48.808;8.820;2022-11-20T13:51:48;96568.75;;;6.37;83.59
70968;BME280;58629;48.808;8.820;2022-11-20T13:54:42;96560.16;;;6.33;83.32
70968;BME280;58629;48.808;8.820;2022-11-20T14:00:20;96561.13;;;6.46;82.36
70968;BME280;58629;48.808;8.820;2022-11-20T14:02:57;96566.34;;;6.50;83.53
70968;BME280;58629;48.808;8.820;2022-11-20T14:05:24;96557.97;;;6.58;81.60
70968;BME280;58629;48.808;8.820;2022-11-20T14:07:51;96554.59;;;6.61;81.46
70968;BME280;58629;48.808;8.820;2022-11-20T14:10:29;96553.03;;;6.64;79.05
70968;BME280;58629;48.808;8.820;2022-11-20T14:12:54;96553.75;;;6.68;79.76
70968;BME280;58629;48.808;8.820;2022-11-20T14:15:30;96550.38;;;6.67;79.29
70968;BME280;58629;48.808;8.820;2022-11-20T14:17:56;96552.22;;;6.70;80.50
70968;BME280;58629;48.808;8.820;2022-11-20T14:20:24;96546.66;;;6.65;76.96
70968;BME280;58629;48.808;8.820;2022-11-20T14:22:52;96549.31;;;6.61;77.48
70968;BME280;58629;48.808;8.820;2022-11-20T14:25:20;96547.34;;;6.69;76.63
70968;BME280;58629;48.808;8.820;2022-11-20T14:27:57;96541.28;;;6.72;75.52
70968;BME280;58629;48.808;8.820;2022-11-20T14:30:26;96544.56;;;6.79;76.66
70968;BME280;58629;48.808;8.820;2022-11-20T14:32:56;96542.50;;;6.64;76.02
70968;BME280;58629;48.808;8.820;2022-11-20T14:35:28;96538.81;;;6.58;76.79
70968;BME280;58629;48.808;8.820;2022-11-20T14:37:54;96539.97;;;6.57;74.69